Time;durP1;ratioP1;P1;durP2;ratioP2;P2;SDS_P1;SDS_P2;PMS_P1;PMS_P2;Temp;Humidity;BMP_temperature;BMP_pressure;BME280_temperature;BME280_humidity;BME280_pressure;Samples;Min_cycle;Max_cycle;Signal;HPM_P1;HPM_P2
2023/06/04 00:01:30;;;;;;;6.13;3.28;;;;;;;9.64;100.00;102383.38;4998099;28;20472;-76
2023/06/04 00:04:17;;;;;;;6.40;3.20;;;;;;;9.59;100.00;102386.13;4997469;28;20057;-76
2023/06/04 00:07:03;;;;;;;5.07;3.10;;;;;;;9.56;100.00;102380.88;4998715;28;20111;-78
2023/06/04 00:09:47;;;;;;;8.60;3.65;;;;;;;9.54;100.00;102382.69;4996844;28;20564;-77
2023/06/04 00:12:31;;;;;;;5.38;3.13;;;;;;;9.56;100.00;102382.66;4997620;28;21072;-77
2023/06/04 00:15:16;;;;;;;7.22;3.42;;;;;;;9.51;100.00;102390.66;4997209;28;20117;-78
2023/06/04 00:18:00;;;;;;;6.45;3.15;;;;;;;9.51;100.00;102388.00;4997470;28;21095;-77
2023/06/04 00:20:44;;;;;;;5.85;3.38;;;;;;;9.52;100.00;102384.47;4997832;28;20088;-78
2023/06/04 00:23:28;;;;;;;6.13;3.22;;;;;;;9.53;100.00;102388.00;4997198;28;20100;-77
2023/06/04 00:26:12;;;;;;;5.97;3.13;;;;;;;9.55;100.00;102391.47;4997370;28;20499;-76
2023/06/04 00:28:56;;;;;;;6.55;3.53;;;;;;;9.54;100.00;102387.09;4968777;28;20709;-77
2023/06/04 00:31:40;;;;;;;6.78;3.38;;;;;;;9.52;100.00;102384.47;4997549;28;20044;-78
2023/06/04 00:34:24;;;;;;;5.82;2.90;;;;;;;9.52;100.00;102384.47;4983224;28;21123;-77
2023/06/04 00:37:08;;;;;;;5.03;2.80;;;;;;;9.52;100.00;102389.75;5013049;28;20064;-77
2023/06/04 00:39:52;;;;;;;5.78;3.22;;;;;;;9.50;100.00;102389.78;5016946;28;20056;-77
2023/06/04 00:42:37;;;;;;;5.85;3.40;;;;;;;9.48;100.00;102388.06;5016979;28;20431;-76
2023/06/04 00:45:21;;;;;;;5.22;3.05;;;;;;;9.45;100.00;102396.94;5016385;28;20167;-77
2023/06/04 00:48:06;;;;;;;4.15;2.72;;;;;;;9.42;100.00;102398.75;5016883;28;20200;-76
2023/06/04 00:50:50;;;;;;;6.75;3.20;;;;;;;9.39;100.00;102402.31;5015677;28;20053;-76
2023/06/04 00:53:35;;;;;;;6.18;3.40;;;;;;;9.35;100.00;102397.97;5016351;28;20228;-76
2023/06/04 00:56:19;;;;;;;4.10;2.78;;;;;;;9.33;100.00;102392.69;5001869;28;20182;-77
2023/06/04 00:59:05;;;;;;;8.30;2.97;;;;;;;9.31;100.00;102399.78;5016238;28;20138;-77
2023/06/04 01:02:01;;;;;;;6.15;3.28;;;;;;;9.31;100.00;102397.13;5016199;28;20136;-77
2023/06/04 01:05:00;;;;;;;12.68;3.38;;;;;;;9.30;100.00;102399.78;5016443;28;20119;-76
2023/06/04 01:07:48;;;;;;;5.72;3.08;;;;;;;9.29;100.00;102404.22;5014724;28;20052;-76
2023/06/04 01:10:32;;;;;;;6.38;3.13;;;;;;;9.28;100.00;102397.19;5001371;28;20037;-77
2023/06/04 01:13:16;;;;;;;6.25;3.28;;;;;;;9.28;100.00;102401.59;5015417;28;20068;-76
2023/06/04 01:16:01;;;;;;;6.15;3.40;;;;;;;9.27;100.00;102402.50;5016151;28;20118;-77
2023/06/04 01:18:46;;;;;;;4.57;3.15;;;;;;;9.24;100.00;102398.13;5015924;28;20527;-77
2023/06/04 01:21:33;;;;;;;6.05;3.20;;;;;;;9.22;100.00;102392.00;5001837;28;20040;-76
2023/06/04 01:24:22;;;;;;;4.60;2.83;;;;;;;9.22;100.00;102398.13;5000521;28;20096;-77
2023/06/04 01:27:06;;;;;;;7.00;2.70;;;;;;;9.20;100.00;102396.41;5001133;28;20044;-76
2023/06/04 01:29:51;;;;;;;4.90;3.00;;;;;;;9.19;100.00;102397.31;5015418;28;20099;-76
2023/06/04 01:32:36;;;;;;;4.78;3.05;;;;;;;9.18;100.00;102400.84;5015685;28;20100;-77
2023/06/04 01:35:20;;;;;;;5.55;3.13;;;;;;;9.16;100.00;102395.59;5000582;28;20115;-77
2023/06/04 01:38:04;;;;;;;6.90;2.90;;;;;;;9.14;100.00;102392.09;5014383;28;20147;-76
2023/06/04 01:40:50;;;;;;;5.95;2.85;;;;;;;9.10;100.00;102393.91;5014887;28;20095;-77
2023/06/04 01:43:35;;;;;;;6.07;3.15;;;;;;;9.09;100.00;102397.44;5015111;28;20103;-76
2023/06/04 01:46:22;;;;;;;6.88;3.00;;;;;;;9.09;100.00;102386.88;5016331;28;20139;-77
2023/06/04 01:49:06;;;;;;;6.90;3.10;;;;;;;9.09;100.00;102396.56;5015558;28;20057;-77
2023/06/04 01:51:50;;;;;;;6.28;3.47;;;;;;;9.07;100.00;102393.09;5015476;28;20626;-76
2023/06/04 01:54:34;;;;;;;6.70;3.28;;;;;;;9.06;100.00;102383.41;5015517;28;20076;-77
2023/06/04 01:57:21;;;;;;;6.50;3.42;;;;;;;9.06;100.00;102386.06;5015944;28;20111;-77
2023/06/04 02:00:08;;;;;;;5.28;2.95;;;;;;;9.03;100.00;102386.97;5015550;28;20535;-77
2023/06/04 02:02:55;;;;;;;6.70;3.50;;;;;;;9.01;100.00;102383.50;5000356;28;20052;-76
2023/06/04 02:05:39;;;;;;;6.70;3.15;;;;;;;9.01;100.00;102386.13;5000161;28;20100;-76
2023/06/04 02:08:25;;;;;;;5.10;2.85;;;;;;;9.02;100.00;102390.50;5014862;28;20173;-77
2023/06/04 02:11:09;;;;;;;7.50;3.15;;;;;;;9.04;100.00;102387.84;5015172;28;20043;-76
2023/06/04 02:13:53;;;;;;;5.78;3.25;;;;;;;9.05;100.00;102387.81;5014399;28;20104;-77
2023/06/04 02:16:37;;;;;;;6.35;3.67;;;;;;;9.08;100.00;102384.25;5014339;28;20670;-76
2023/06/04 02:19:21;;;;;;;7.18;2.90;;;;;;;9.09;100.00;102383.34;5014736;28;20049;-77
2023/06/04 02:22:06;;;;;;;6.15;2.85;;;;;;;9.05;100.00;102382.53;5014863;28;20278;-76
2023/06/04 02:24:50;;;;;;;5.80;3.13;;;;;;;9.03;100.00;102381.69;5015001;28;20100;-77
2023/06/04 02:27:35;;;;;;;6.63;3.45;;;;;;;9.00;100.00;102380.84;4999557;28;20044;-77
2023/06/04 02:30:19;;;;;;;6.50;3.20;;;;;;;8.98;100.00;102388.78;5013525;28;20052;-75
2023/06/04 02:33:03;;;;;;;8.68;3.08;;;;;;;8.93;100.00;102386.22;4999932;28;20128;-76
2023/06/04 02:35:48;;;;;;;5.55;3.10;;;;;;;8.89;100.00;102388.94;4999280;28;20507;-76
2023/06/04 02:38:33;;;;;;;9.82;3.22;;;;;;;8.83;100.00;102385.47;5014727;28;21650;-77
2023/06/04 02:41:17;;;;;;;8.15;3.83;;;;;;;8.79;100.00;102389.06;5013533;28;20104;-75
2023/06/04 02:44:01;;;;;;;5.03;3.10;;;;;;;8.76;100.00;102397.00;4985340;28;20044;-76
2023/06/04 02:46:45;;;;;;;6.10;3.65;;;;;;;8.73;100.00;102394.44;5014554;28;20195;-77
2023/06/04 02:49:30;;;;;;;3.70;2.83;;;;;;;8.72;100.00;102384.72;5014806;28;20572;-76
2023/06/04 02:52:14;;;;;;;5.70;3.50;;;;;;;8.74;100.00;102400.56;4999703;28;20064;-76
2023/06/04 02:54:58;;;;;;;4.00;3.00;;;;;;;8.74;100.00;102395.28;5014754;28;20048;-76
2023/06/04 02:57:42;;;;;;;6.78;3.33;;;;;;;8.73;100.00;102388.25;5014410;28;20091;-76
2023/06/04 03:00:27;;;;;;;4.85;3.40;;;;;;;8.73;100.00;102393.53;5013294;28;20047;-76
2023/06/04 03:03:11;;;;;;;7.40;3.70;;;;;;;8.70;100.00;102386.53;5014691;28;20527;-75
2023/06/04 03:05:55;;;;;;;5.25;3.55;;;;;;;8.67;100.00;102389.22;5013114;28;20037;-76
2023/06/04 03:08:40;;;;;;;4.60;3.13;;;;;;;8.64;100.00;102389.25;5014629;28;20621;-77
2023/06/04 03:11:27;;;;;;;5.43;3.50;;;;;;;8.64;100.00;102394.53;5014570;28;20048;-75
2023/06/04 03:14:11;;;;;;;6.07;3.42;;;;;;;8.63;100.00;102388.38;5013779;28;20040;-75
2023/06/04 03:16:55;;;;;;;5.35;3.58;;;;;;;8.61;100.00;102386.66;5014524;28;20634;-74
2023/06/04 03:19:41;;;;;;;6.10;3.55;;;;;;;8.61;100.00;102390.16;5014756;28;20405;-76
2023/06/04 03:22:25;;;;;;;8.43;4.07;;;;;;;8.60;100.00;102388.41;5013158;28;20448;-76
2023/06/04 03:25:09;;;;;;;7.70;4.47;;;;;;;8.59;100.00;102388.41;5013063;28;20092;-76
2023/06/04 03:27:53;;;;;;;7.43;4.50;;;;;;;8.59;100.00;102388.41;5014798;28;20145;-76
2023/06/04 03:30:39;;;;;;;7.78;4.55;;;;;;;8.57;100.00;102388.47;5013760;28;20511;-75
2023/06/04 03:33:24;;;;;;;9.00;4.85;;;;;;;8.60;100.00;102392.84;5014050;28;20471;-77
2023/06/04 03:36:07;;;;;;;10.15;5.82;;;;;;;8.60;100.00;102388.41;5012468;28;20132;-75
2023/06/04 03:38:51;;;;;;;10.90;5.45;;;;;;;8.63;100.00;102390.16;4994825;28;20425;-76
2023/06/04 03:41:36;;;;;;;9.60;5.70;;;;;;;8.66;100.00;102388.34;4994242;28;20508;-76
2023/06/04 03:44:21;;;;;;;9.40;6.13;;;;;;;8.67;100.00;102373.38;4979341;28;20105;-76
2023/06/04 03:47:05;;;;;;;13.32;6.28;;;;;;;8.65;100.00;102380.44;4993394;28;20140;-76
2023/06/04 03:49:49;;;;;;;10.45;5.82;;;;;;;8.67;100.00;102383.94;4980389;28;20097;-76
2023/06/04 03:52:33;;;;;;;12.00;6.65;;;;;;;8.67;100.00;102386.59;4994358;28;20185;-77
2023/06/04 03:55:18;;;;;;;11.75;7.03;;;;;;;8.67;100.00;102379.50;4994730;28;20171;-75
2023/06/04 03:58:02;;;;;;;12.52;6.63;;;;;;;8.69;100.00;102384.78;4994323;28;20060;-75
2023/06/04 04:00:46;;;;;;;14.30;7.45;;;;;;;8.70;100.00;102386.53;4994340;28;20506;-76
2023/06/04 04:03:31;;;;;;;13.18;7.15;;;;;;;8.72;100.00;102386.53;4993259;28;20044;-76
2023/06/04 04:06:15;;;;;;;16.55;7.55;;;;;;;8.73;100.00;102389.16;4996143;28;21523;-74
2023/06/04 04:08:59;;;;;;;12.15;7.25;;;;;;;8.74;100.00;102379.44;4994303;28;20056;-77
2023/06/04 04:11:43;;;;;;;15.32;7.32;;;;;;;8.74;100.00;102385.59;4979122;28;20412;-76
2023/06/04 04:14:27;;;;;;;13.20;7.40;;;;;;;8.76;100.00;102383.81;4994092;28;20057;-76
2023/06/04 04:17:12;;;;;;;15.05;6.95;;;;;;;8.76;100.00;102388.25;4979256;28;20052;-75
2023/06/04 04:20:02;;;;;;;13.00;6.75;;;;;;;8.79;100.00;102394.34;4994017;28;20201;-76
2023/06/04 04:22:46;;;;;;;12.93;6.57;;;;;;;8.82;100.00;102396.94;4993877;28;20061;-75
2023/06/04 04:25:32;;;;;;;13.63;6.53;;;;;;;8.83;100.00;102390.75;4995118;28;20065;-76
2023/06/04 04:28:17;;;;;;;12.00;6.47;;;;;;;8.85;100.00;102393.38;4996313;28;20080;-75
2023/06/04 04:31:04;;;;;;;12.50;6.40;;;;;;;8.90;100.00;102394.22;4996093;28;20049;-75
2023/06/04 04:33:50;;;;;;;10.55;6.07;;;;;;;8.94;100.00;102392.41;4997284;28;20097;-74
2023/06/04 04:36:36;;;;;;;10.38;5.80;;;;;;;8.98;100.00;102388.78;4982223;28;20630;-75
2023/06/04 04:39:24;;;;;;;10.70;6.35;;;;;;;9.03;100.00;102389.63;5020469;28;20096;-75
2023/06/04 04:42:08;;;;;;;8.13;5.65;;;;;;;9.08;100.00;102390.44;4990888;28;20103;-75
2023/06/04 04:44:52;;;;;;;14.27;6.25;;;;;;;9.14;100.00;102384.16;5019780;28;20036;-76
2023/06/04 04:47:37;;;;;;;9.75;6.05;;;;;;;9.19;100.00;102384.09;5019739;28;20048;-76
2023/06/04 04:50:21;;;;;;;9.25;5.60;;;;;;;9.23;100.00;102388.44;5005091;28;20076;-75
2023/06/04 04:53:05;;;;;;;9.13;6.05;;;;;;;9.28;100.00;102385.72;5019627;28;20107;-75
2023/06/04 04:55:49;;;;;;;8.23;5.10;;;;;;;9.33;100.00;102389.19;5004964;28;20037;-75
2023/06/04 04:58:33;;;;;;;10.13;5.65;;;;;;;9.41;100.00;102392.56;4996732;28;20099;-75
2023/06/04 05:01:17;;;;;;;11.60;6.03;;;;;;;9.51;100.00;102386.25;5019392;28;20096;-76
2023/06/04 05:04:02;;;;;;;8.40;5.68;;;;;;;9.61;100.00;102383.44;5019407;28;20056;-77
2023/06/04 05:06:45;;;;;;;11.02;6.10;;;;;;;9.71;100.00;102390.34;5019698;28;20157;-75
2023/06/04 05:09:29;;;;;;;9.02;5.50;;;;;;;9.84;100.00;102385.69;5019178;28;20334;-76
2023/06/04 05:12:14;;;;;;;10.68;6.22;;;;;;;9.96;100.00;102389.03;5004258;28;20519;-76
2023/06/04 05:14:58;;;;;;;9.05;5.88;;;;;;;10.08;100.00;102388.78;5019610;28;20180;-76
2023/06/04 05:17:43;;;;;;;8.05;4.93;;;;;;;10.26;100.00;102392.00;5004034;28;20578;-75
2023/06/04 05:20:27;;;;;;;9.13;5.32;;;;;;;10.43;100.00;102392.59;5004924;28;20080;-76
2023/06/04 05:23:12;;;;;;;8.30;5.50;;;;;;;10.60;100.00;102391.34;5019682;28;20044;-75
2023/06/04 05:25:56;;;;;;;9.32;5.50;;;;;;;10.80;100.00;102388.28;5019361;28;20408;-76
2023/06/04 05:28:43;;;;;;;9.07;5.45;;;;;;;10.98;100.00;102402.03;5019578;28;20851;-76
2023/06/04 05:31:27;;;;;;;8.13;5.20;;;;;;;11.11;100.00;102387.59;5004349;28;20064;-76
2023/06/04 05:34:15;;;;;;;10.02;5.43;;;;;;;11.33;100.00;102397.69;5019075;28;20502;-76
2023/06/04 05:36:59;;;;;;;10.18;5.15;;;;;;;11.54;100.00;102403.38;4994567;28;20056;-76
2023/06/04 05:39:43;;;;;;;7.90;5.07;;;;;;;11.73;100.00;102392.31;5015841;28;20444;-76
2023/06/04 05:42:27;;;;;;;10.93;6.30;;;;;;;11.90;100.00;102399.84;5016382;28;20091;-76
2023/06/04 05:45:11;;;;;;;10.48;5.80;;;;;;;12.07;100.00;102392.34;5001193;28;20052;-76
2023/06/04 05:47:55;;;;;;;11.55;6.38;;;;;;;12.26;100.00;102383.84;5012208;28;20145;-76
2023/06/04 05:50:39;;;;;;;9.60;6.18;;;;;;;12.50;100.00;102397.34;5014931;28;20099;-76
2023/06/04 05:53:24;;;;;;;9.00;6.22;;;;;;;12.70;100.00;102390.59;5014596;28;20523;-75
2023/06/04 05:56:08;;;;;;;9.48;5.45;;;;;;;12.88;100.00;102398.00;5016224;28;20676;-77
2023/06/04 05:58:52;;;;;;;12.07;5.50;;;;;;;13.11;100.00;102398.19;5015594;28;20405;-77
2023/06/04 06:01:38;;;;;;;11.95;5.45;;;;;;;13.28;100.00;102395.00;5014746;28;20051;-77
2023/06/04 06:04:22;;;;;;;7.00;4.22;;;;;;;13.40;100.00;102394.59;5015371;28;20055;-77
2023/06/04 06:07:06;;;;;;;6.70;3.78;;;;;;;13.47;100.00;102394.44;5014565;28;20061;-76
2023/06/04 06:09:50;;;;;;;10.23;4.40;;;;;;;13.64;100.00;102391.22;4964437;28;20575;-76
2023/06/04 06:12:34;;;;;;;6.90;4.05;;;;;;;13.75;100.00;102396.16;5015603;28;20052;-76
2023/06/04 06:15:18;;;;;;;7.65;4.22;;;;;;;13.86;100.00;102402.00;5015260;28;20056;-77
2023/06/04 06:18:02;;;;;;;10.75;3.70;;;;;;;13.99;100.00;102402.44;5015513;28;20072;-76
2023/06/04 06:20:58;;;;;;;6.63;3.38;;;;;;;14.06;100.00;102403.09;5014937;28;20076;-79
2023/06/04 06:23:42;;;;;;;6.55;3.30;;;;;;;14.06;100.00;102400.44;5000383;28;20036;-75
2023/06/04 06:26:26;;;;;;;8.40;3.20;;;;;;;14.18;100.00;102409.78;5015486;28;20112;-76
2023/06/04 06:29:10;;;;;;;6.53;3.13;;;;;;;14.20;100.00;102406.13;5015204;28;20049;-77
2023/06/04 06:31:54;;;;;;;6.45;3.35;;;;;;;14.32;100.00;102401.28;5015008;28;20679;-76
2023/06/04 06:34:39;;;;;;;6.05;3.50;;;;;;;14.40;100.00;102410.72;5015508;28;20040;-76
2023/06/04 06:37:22;;;;;;;7.00;3.38;;;;;;;14.62;100.00;102411.72;5003906;28;20157;-76
2023/06/04 06:40:10;;;;;;;5.55;2.72;;;;;;;14.78;100.00;102410.25;4995356;28;20126;-77
2023/06/04 06:42:54;;;;;;;7.63;2.67;;;;;;;14.95;100.00;102419.41;4994749;28;20081;-77
2023/06/04 06:45:38;;;;;;;6.13;2.38;;;;;;;15.03;100.00;102417.28;4995439;28;20117;-76
2023/06/04 06:48:26;;;;;;;8.75;2.78;;;;;;;15.18;100.00;102409.59;4994681;28;20417;-77
2023/06/04 06:51:10;;;;;;;9.05;2.60;;;;;;;15.29;100.00;102407.38;4979968;28;20124;-77
2023/06/04 06:53:55;;;;;;;5.10;2.55;;;;;;;15.39;100.00;102421.22;4980207;28;21625;-77
2023/06/04 06:56:39;;;;;;;5.82;2.28;;;;;;;15.49;100.00;102419.03;4994382;28;20116;-77
2023/06/04 06:59:23;;;;;;;6.43;2.45;;;;;;;15.57;100.00;102419.59;4994916;28;20053;-77
2023/06/04 07:02:07;;;;;;;6.15;2.33;;;;;;;15.55;100.00;102421.47;4992565;28;20092;-76
2023/06/04 07:04:52;;;;;;;5.72;2.22;;;;;;;15.67;100.00;102430.75;4995597;28;20490;-75
2023/06/04 07:07:36;;;;;;;4.50;2.25;;;;;;;15.66;100.00;102430.81;4995345;28;20180;-76
2023/06/04 07:10:20;;;;;;;6.97;2.25;;;;;;;15.58;100.00;102424.00;4979414;28;20428;-76
2023/06/04 07:13:04;;;;;;;3.78;2.22;;;;;;;15.66;100.00;102423.69;4994663;28;20636;-77
2023/06/04 07:15:48;;;;;;;4.47;2.30;;;;;;;15.76;100.00;102421.50;4979557;28;20468;-76
2023/06/04 07:18:33;;;;;;;5.55;2.28;;;;;;;15.83;100.00;102427.41;4993152;28;20076;-76
2023/06/04 07:21:19;;;;;;;5.38;2.38;;;;;;;15.99;100.00;102433.91;4994559;28;20044;-77
2023/06/04 07:24:03;;;;;;;3.78;2.10;;;;;;;16.10;100.00;102440.56;4994532;28;20045;-76
2023/06/04 07:26:48;;;;;;;4.38;1.80;;;;;;;16.10;100.00;102436.09;4980297;28;21773;-76
2023/06/04 07:29:32;;;;;;;4.82;1.85;;;;;;;16.08;100.00;102427.25;4979156;28;20092;-76
2023/06/04 07:32:16;;;;;;;2.58;1.42;;;;;;;16.06;100.00;102430.97;4979589;28;20052;-76
2023/06/04 07:35:00;;;;;;;4.85;1.52;;;;;;;16.16;100.00;102440.28;4994263;28;20639;-76
2023/06/04 07:37:45;;;;;;;3.17;1.60;;;;;;;16.23;100.00;102444.44;4995529;28;20511;-76
2023/06/04 07:40:29;;;;;;;2.60;1.50;;;;;;;16.38;100.00;102428.63;4994693;28;20084;-76
2023/06/04 07:43:13;;;;;;;2.28;1.40;;;;;;;16.39;100.00;102436.59;4994129;28;20119;-77
2023/06/04 07:45:57;;;;;;;3.90;1.50;;;;;;;16.46;100.00;102430.97;4994588;28;20125;-76
2023/06/04 07:48:41;;;;;;;2.53;1.50;;;;;;;16.61;100.00;102434.78;4994575;28;20137;-76
2023/06/04 07:51:25;;;;;;;3.20;1.23;;;;;;;16.66;100.00;102433.59;4994046;28;20044;-76
2023/06/04 07:54:13;;;;;;;2.72;1.42;;;;;;;16.70;99.16;102429.88;4993891;28;20109;-76
2023/06/04 07:56:58;;;;;;;3.30;1.40;;;;;;;16.75;96.83;102431.44;4974153;28;20045;-77
2023/06/04 07:59:41;;;;;;;3.28;1.10;;;;;;;16.77;96.35;102432.25;4994125;28;20108;-76
2023/06/04 08:02:26;;;;;;;3.67;1.20;;;;;;;16.90;96.63;102430.75;4998387;28;20036;-77
2023/06/04 08:05:09;;;;;;;3.92;1.23;;;;;;;17.13;96.33;102442.19;4982966;28;20416;-76
2023/06/04 08:07:53;;;;;;;2.67;1.50;;;;;;;17.28;93.93;102437.00;4998203;28;20092;-76
2023/06/04 08:10:39;;;;;;;3.60;1.33;;;;;;;17.30;95.08;102437.81;4983640;28;20809;-77
2023/06/04 08:13:23;;;;;;;1.08;0.98;;;;;;;17.47;94.33;102436.97;4997865;28;20049;-76
2023/06/04 08:16:10;;;;;;;1.95;1.13;;;;;;;17.69;91.77;102439.44;4998161;28;20053;-77
2023/06/04 08:18:54;;;;;;;1.83;1.30;;;;;;;17.71;91.00;102442.06;4997574;28;20080;-75
2023/06/04 08:21:40;;;;;;;3.72;1.38;;;;;;;17.73;91.38;102438.34;4996807;28;20049;-76
2023/06/04 08:24:24;;;;;;;3.55;1.20;;;;;;;17.77;90.55;102442.59;4996474;28;20116;-76
2023/06/04 08:27:09;;;;;;;3.60;1.10;;;;;;;17.76;90.60;102440.03;4996377;28;20193;-75
2023/06/04 08:29:53;;;;;;;2.75;1.30;;;;;;;17.82;91.18;102442.34;4997168;28;20052;-75
2023/06/04 08:32:37;;;;;;;2.25;1.20;;;;;;;17.96;89.60;102436.31;4996127;28;20066;-77
2023/06/04 08:35:21;;;;;;;2.50;1.58;;;;;;;18.05;88.80;102430.50;4982731;28;20108;-73
2023/06/04 08:38:05;;;;;;;3.05;1.27;;;;;;;18.04;88.63;102443.97;5014539;28;20170;-72
2023/06/04 08:40:52;;;;;;;1.25;1.00;;;;;;;18.06;88.69;102436.72;5019823;28;20057;-73
2023/06/04 08:43:39;;;;;;;1.48;1.00;;;;;;;18.17;87.28;102444.19;5019662;28;20152;-72
2023/06/04 08:46:23;;;;;;;3.17;1.30;;;;;;;18.15;88.23;102446.09;5019189;28;20099;-74
2023/06/04 08:49:08;;;;;;;2.28;1.27;;;;;;;18.18;87.96;102445.94;4988872;28;20168;-75
2023/06/04 08:51:53;;;;;;;2.25;1.20;;;;;;;18.20;87.39;102446.75;5019762;28;20055;-76
2023/06/04 08:54:37;;;;;;;2.92;1.30;;;;;;;18.11;83.50;102445.41;5004141;28;20044;-74
2023/06/04 08:57:21;;;;;;;1.85;1.35;;;;;;;18.17;84.08;102441.53;5004675;28;20064;-75
2023/06/04 09:00:07;;;;;;;2.65;1.15;;;;;;;18.18;84.32;102435.22;5004524;28;20482;-76
2023/06/04 09:02:52;;;;;;;3.60;1.35;;;;;;;18.26;86.71;102448.22;5019018;28;20125;-76
2023/06/04 09:05:37;;;;;;;4.43;1.10;;;;;;;18.42;85.32;102440.22;5014519;28;20188;-74
2023/06/04 09:08:21;;;;;;;1.60;1.17;;;;;;;18.38;86.01;102441.31;5003714;28;20114;-76
2023/06/04 09:11:08;;;;;;;2.22;1.02;;;;;;;18.35;84.16;102441.50;5002523;28;20541;-76
2023/06/04 09:13:53;;;;;;;1.70;1.30;;;;;;;18.46;85.96;102434.59;5003308;28;20436;-75
2023/06/04 09:16:48;;;;;;;3.15;1.45;;;;;;;18.50;80.57;102435.31;5004168;28;20472;-76
2023/06/04 09:19:32;;;;;;;2.20;1.17;;;;;;;18.54;82.87;102438.69;5017909;28;20120;-75
2023/06/04 09:22:17;;;;;;;5.10;1.25;;;;;;;18.59;81.94;102432.13;5019142;28;20048;-74
2023/06/04 09:25:03;;;;;;;3.28;1.45;;;;;;;18.65;81.21;102447.03;5004161;28;20138;-74
2023/06/04 09:27:48;;;;;;;2.05;1.05;;;;;;;18.67;81.59;102445.13;5004109;28;20053;-75
2023/06/04 09:30:33;;;;;;;1.25;1.02;;;;;;;18.79;78.62;102445.41;5018838;28;20487;-76
2023/06/04 09:33:16;;;;;;;2.38;1.30;;;;;;;18.74;78.43;102448.31;5018426;28;20084;-74
2023/06/04 09:36:01;;;;;;;1.90;1.23;;;;;;;18.72;77.78;102436.81;5019370;28;20052;-75
2023/06/04 09:38:46;;;;;;;2.15;1.33;;;;;;;18.79;78.25;102440.88;4967937;28;20527;-75
2023/06/04 09:41:30;;;;;;;3.38;1.27;;;;;;;18.92;77.43;102441.09;4995802;28;20141;-76
2023/06/04 09:44:17;;;;;;;2.63;1.30;;;;;;;18.95;75.98;102445.41;4978993;28;20124;-76
2023/06/04 09:47:01;;;;;;;1.90;1.45;;;;;;;18.87;75.01;102444.00;4981464;28;20572;-76
2023/06/04 09:49:45;;;;;;;3.28;1.38;;;;;;;18.79;72.73;102438.19;4995755;28;20569;-76
2023/06/04 09:52:44;;;;;;;3.08;1.45;;;;;;;18.83;74.38;102445.16;4995184;28;20726;-76
2023/06/04 09:55:28;;;;;;;3.70;1.35;;;;;;;18.89;74.11;102443.09;4996422;28;20691;-76
2023/06/04 09:58:13;;;;;;;1.60;1.40;;;;;;;18.75;73.92;102446.50;4997342;28;20069;-74
2023/06/04 10:00:59;;;;;;;2.65;1.30;;;;;;;18.70;74.95;102447.63;4996363;28;20049;-75
2023/06/04 10:03:47;;;;;;;3.13;1.30;;;;;;;18.79;72.73;102453.44;4981571;28;20041;-76
2023/06/04 10:06:35;;;;;;;3.10;1.25;;;;;;;18.77;73.02;102458.00;4996148;28;20048;-75
2023/06/04 10:09:20;;;;;;;2.80;1.33;;;;;;;18.93;73.35;102460.72;4981691;28;20056;-76
2023/06/04 10:12:05;;;;;;;7.03;1.63;;;;;;;18.98;72.86;102459.53;4995923;28;20096;-76
2023/06/04 10:14:55;;;;;;;2.15;1.30;;;;;;;18.92;71.58;102461.69;4994373;28;20057;-77
2023/06/04 10:17:40;;;;;;;2.03;1.00;;;;;;;18.86;72.80;102463.75;4996209;28;20112;-75
2023/06/04 10:20:24;;;;;;;3.55;1.70;;;;;;;18.75;72.60;102455.44;4981003;28;20100;-75
2023/06/04 10:23:08;;;;;;;2.97;1.27;;;;;;;18.67;71.95;102460.34;4995776;28;20052;-77
2023/06/04 10:25:53;;;;;;;3.50;1.40;;;;;;;18.66;71.55;102464.84;4996375;28;20052;-77
2023/06/04 10:28:38;;;;;;;2.33;1.10;;;;;;;18.55;72.68;102468.13;4995383;28;20056;-77
2023/06/04 10:31:22;;;;;;;2.90;1.30;;;;;;;18.52;72.20;102462.91;4980846;28;22232;-76
2023/06/04 10:34:06;;;;;;;1.90;1.23;;;;;;;18.52;72.33;102460.22;4980870;28;20053;-75
2023/06/04 10:36:52;;;;;;;3.55;1.50;;;;;;;18.37;71.65;102461.03;4995490;28;20129;-75
2023/06/04 10:39:36;;;;;;;3.90;1.40;;;;;;;18.40;73.03;102461.75;4994228;28;20140;-75
2023/06/04 10:42:21;;;;;;;1.35;1.00;;;;;;;18.49;72.80;102468.44;4981025;28;20156;-76
2023/06/04 10:45:07;;;;;;;1.85;1.20;;;;;;;18.49;72.39;102473.81;4980772;28;20129;-76
2023/06/04 10:48:00;;;;;;;2.20;1.40;;;;;;;18.44;70.91;102478.53;4980981;28;20053;-76
2023/06/04 10:50:49;;;;;;;1.40;1.00;;;;;;;18.44;71.10;102483.91;4995337;28;20049;-76
2023/06/04 10:53:37;;;;;;;2.58;1.02;;;;;;;18.41;71.61;102468.00;4981124;28;20048;-76
2023/06/04 10:56:31;;;;;;;2.10;1.20;;;;;;;18.50;69.92;102471.97;4995257;28;20081;-76
2023/06/04 10:59:17;;;;;;;2.42;1.13;;;;;;;18.51;70.99;102479.09;4995605;28;20056;-75
2023/06/04 11:02:06;;;;;;;2.35;1.00;;;;;;;18.52;71.18;102464.72;4980971;28;20626;-76
2023/06/04 11:05:05;;;;;;;1.30;1.02;;;;;;;18.56;68.61;102477.88;4995575;28;20052;-76
2023/06/04 11:07:49;;;;;;;1.77;1.10;;;;;;;18.51;70.89;102484.47;4980472;28;20092;-76
2023/06/04 11:10:36;;;;;;;2.15;1.20;;;;;;;18.47;70.50;102475.72;4995187;28;20792;-76
2023/06/04 11:13:26;;;;;;;1.77;1.00;;;;;;;18.47;70.34;102483.75;4995027;28;20065;-76
2023/06/04 11:16:18;;;;;;;2.38;1.20;;;;;;;18.48;68.23;102477.44;4994887;28;20089;-76
2023/06/04 11:19:02;;;;;;;1.80;1.17;;;;;;;18.42;70.33;102472.41;4994833;28;20579;-75
2023/06/04 11:21:46;;;;;;;2.45;1.40;;;;;;;18.31;70.48;102468.47;4995558;28;20085;-75
2023/06/04 11:24:30;;;;;;;2.67;1.45;;;;;;;18.35;70.43;102463.78;4979845;28;20180;-76
2023/06/04 11:27:14;;;;;;;2.00;1.15;;;;;;;18.29;70.67;102459.63;4980521;28;20120;-76
2023/06/04 11:29:58;;;;;;;3.65;1.38;;;;;;;18.31;70.22;102463.09;4981577;28;20112;-75
2023/06/04 11:32:42;;;;;;;4.53;1.58;;;;;;;18.42;69.84;102459.00;4980012;28;20112;-75
2023/06/04 11:35:26;;;;;;;1.67;1.10;;;;;;;18.40;69.17;102455.50;4993990;28;20084;-74
2023/06/04 11:38:10;;;;;;;2.00;1.05;;;;;;;18.43;69.04;102461.56;5008636;28;20068;-75
2023/06/04 11:40:58;;;;;;;1.63;1.00;;;;;;;18.46;68.79;102456.06;5012190;28;20409;-76
2023/06/04 11:43:47;;;;;;;1.85;1.00;;;;;;;18.48;68.65;102455.09;5013337;28;20052;-75
2023/06/04 11:46:35;;;;;;;2.00;1.15;;;;;;;18.51;69.14;102461.16;5013169;28;20058;-75
2023/06/04 11:49:20;;;;;;;3.17;1.27;;;;;;;18.55;69.23;102460.06;5012746;28;20060;-76
2023/06/04 11:52:04;;;;;;;3.50;1.40;;;;;;;18.45;68.65;102464.19;5011776;28;20056;-76
2023/06/04 11:54:49;;;;;;;3.63;1.50;;;;;;;18.29;68.85;102454.28;5012022;28;20060;-77
2023/06/04 11:57:33;;;;;;;3.25;1.23;;;;;;;18.25;68.58;102452.69;4997960;28;20096;-76
2023/06/04 12:00:19;;;;;;;2.63;1.60;;;;;;;18.30;69.01;102455.16;4998203;28;20049;-76
2023/06/04 12:03:04;;;;;;;5.32;1.60;;;;;;;18.29;68.74;102459.63;4997772;28;20420;-75
2023/06/04 12:05:48;;;;;;;3.70;1.35;;;;;;;18.33;68.77;102454.97;5013430;28;20045;-75
2023/06/04 12:08:32;;;;;;;2.97;1.42;;;;;;;18.53;69.37;102461.94;5012143;28;20095;-75
2023/06/04 12:11:33;;;;;;;2.53;1.15;;;;;;;18.53;64.98;102451.22;5013212;28;20052;-75
2023/06/04 12:14:21;;;;;;;1.35;1.00;;;;;;;18.40;66.95;102464.44;4990153;28;20056;-75
2023/06/04 12:17:06;;;;;;;1.92;1.40;;;;;;;18.39;68.30;102461.81;5012396;28;20084;-75
2023/06/04 12:19:52;;;;;;;2.05;1.30;;;;;;;18.50;68.37;102456.75;4997944;28;20724;-76
2023/06/04 12:22:47;;;;;;;1.90;1.30;;;;;;;18.53;67.05;102467.31;4995176;28;20041;-76
2023/06/04 12:25:32;;;;;;;2.00;1.23;;;;;;;18.38;67.51;102454.72;5013078;28;20080;-77
2023/06/04 12:28:17;;;;;;;1.38;1.02;;;;;;;18.43;68.17;102463.41;4998236;28;20044;-76
2023/06/04 12:31:01;;;;;;;2.50;1.35;;;;;;;18.55;68.29;102456.50;5012016;28;20072;-76
2023/06/04 12:33:45;;;;;;;2.17;1.23;;;;;;;18.62;66.64;102449.84;5013146;28;20072;-76
2023/06/04 12:36:30;;;;;;;1.60;1.05;;;;;;;18.56;64.44;102448.38;5012508;28;20052;-77
2023/06/04 12:39:14;;;;;;;3.25;1.10;;;;;;;18.55;67.38;102457.38;5013534;28;20048;-76
2023/06/04 12:41:58;;;;;;;2.25;1.13;;;;;;;18.47;67.44;102448.91;4997965;28;20176;-76
2023/06/04 12:44:42;;;;;;;1.13;1.02;;;;;;;18.45;68.34;102454.34;5012173;28;20057;-76